Time;durP1;ratioP1;P1;durP2;ratioP2;P2;SDS_P1;SDS_P2;PMS_P1;PMS_P2;Temp;Humidity;BMP_temperature;BMP_pressure;BME280_temperature;BME280_humidity;BME280_pressure;Samples;Min_cycle;Max_cycle;Signal;HPM_P1;HPM_P2
2023/01/30 00:01:03;;;;;;;10.80;5.07;;;;;;;;;;5041103;28;20021;-61
2023/01/30 00:03:28;;;;;;;11.60;5.22;;;;;;;;;;5039603;28;20021;-60
2023/01/30 00:05:54;;;;;;;11.68;4.75;;;;;;;;;;5042296;28;20629;-61
2023/01/30 00:08:19;;;;;;;11.23;5.05;;;;;;;;;;5051166;28;20068;-60
2023/01/30 00:10:45;;;;;;;9.80;4.90;;;;;;;;;;5045071;28;20075;-62
2023/01/30 00:13:11;;;;;;;10.82;4.80;;;;;;;;;;5046866;28;20449;-60
2023/01/30 00:15:36;;;;;;;9.50;5.00;;;;;;;;;;5050677;28;20021;-59
2023/01/30 00:18:02;;;;;;;12.68;5.25;;;;;;;;;;5049151;28;20493;-60
2023/01/30 00:20:27;;;;;;;10.80;5.05;;;;;;;;;;5038927;28;20475;-59
2023/01/30 00:22:52;;;;;;;10.67;5.10;;;;;;;;;;5046878;28;20047;-59
2023/01/30 00:25:17;;;;;;;11.90;5.55;;;;;;;;;;5050727;28;20115;-60
2023/01/30 00:27:42;;;;;;;10.48;5.18;;;;;;;;;;5050431;28;20017;-59
2023/01/30 00:30:08;;;;;;;11.55;5.10;;;;;;;;;;5048495;28;20044;-58
2023/01/30 00:32:33;;;;;;;10.68;4.93;;;;;;;;;;5046022;28;20068;-59
2023/01/30 00:34:58;;;;;;;10.48;5.00;;;;;;;;;;5055503;28;20028;-60
2023/01/30 00:37:23;;;;;;;10.02;4.75;;;;;;;;;;5054803;28;20083;-59
2023/01/30 00:39:49;;;;;;;10.67;4.60;;;;;;;;;;5052966;28;20049;-60
2023/01/30 00:47:42;;;;;;;10.70;4.90;;;;;;;;;;5042063;28;20059;-60
2023/01/30 00:50:07;;;;;;;11.00;4.90;;;;;;;;;;5044665;28;20057;-59
2023/01/30 00:52:33;;;;;;;10.80;5.28;;;;;;;;;;5042431;28;20033;-59
2023/01/30 00:54:58;;;;;;;11.10;4.88;;;;;;;;;;5051874;28;20052;-58
2023/01/30 00:57:23;;;;;;;11.25;4.85;;;;;;;;;;5055026;28;20060;-60
2023/01/30 00:59:48;;;;;;;10.65;4.38;;;;;;;;;;5049536;28;20039;-59
2023/01/30 01:02:13;;;;;;;10.07;5.00;;;;;;;;;;5044066;28;20025;-59
2023/01/30 01:04:44;;;;;;;9.68;4.70;;;;;;;;;;5044975;28;20013;-60
2023/01/30 01:07:10;;;;;;;9.35;4.80;;;;;;;;;;5045226;28;20029;-59
2023/01/30 01:09:36;;;;;;;9.70;4.57;;;;;;;;;;5046764;28;20020;-60
2023/01/30 01:12:01;;;;;;;10.27;4.73;;;;;;;;;;5050228;28;20426;-60
2023/01/30 01:14:26;;;;;;;9.63;4.70;;;;;;;;;;5050980;28;20029;-59
2023/01/30 01:16:51;;;;;;;9.87;5.00;;;;;;;;;;5051660;28;20471;-60
2023/01/30 01:19:17;;;;;;;11.50;4.90;;;;;;;;;;5047884;28;20478;-60
2023/01/30 01:21:42;;;;;;;10.33;4.90;;;;;;;;;;5052876;28;20028;-60
2023/01/30 01:24:10;;;;;;;10.55;4.88;;;;;;;;;;5043176;28;20022;-59
2023/01/30 01:26:35;;;;;;;12.05;4.93;;;;;;;;;;5052127;28;20017;-58
2023/01/30 01:29:00;;;;;;;10.48;4.55;;;;;;;;;;5049581;28;20031;-60
2023/01/30 01:31:26;;;;;;;10.63;5.17;;;;;;;;;;5049556;28;20051;-60
2023/01/30 01:33:51;;;;;;;10.13;5.10;;;;;;;;;;5052175;28;20045;-60
2023/01/30 01:36:16;;;;;;;11.13;5.03;;;;;;;;;;5050220;28;20033;-60
2023/01/30 01:38:41;;;;;;;10.60;5.10;;;;;;;;;;5046559;28;20020;-59
2023/01/30 01:41:08;;;;;;;10.90;5.03;;;;;;;;;;5051513;28;20432;-59
2023/01/30 01:43:34;;;;;;;;;;;;;;;;;;5047114;28;20460;-59
2023/01/30 01:46:01;;;;;;;12.07;4.97;;;;;;;;;;5050721;28;20031;-60
2023/01/30 01:48:29;;;;;;;10.25;4.65;;;;;;;;;;5050715;28;20025;-60
2023/01/30 01:50:57;;;;;;;12.63;5.28;;;;;;;;;;5036410;28;20036;-60
2023/01/30 01:53:24;;;;;;;10.45;5.00;;;;;;;;;;5047442;28;20394;-60
2023/01/30 01:55:51;;;;;;;11.30;5.32;;;;;;;;;;5045970;28;20021;-59
2023/01/30 01:58:23;;;;;;;12.15;5.47;;;;;;;;;;5042782;28;20033;-59
2023/01/30 02:00:48;;;;;;;11.60;5.55;;;;;;;;;;5033408;28;20033;-59
2023/01/30 02:03:16;;;;;;;11.47;5.17;;;;;;;;;;5042469;28;20013;-60
2023/01/30 02:05:42;;;;;;;10.38;4.78;;;;;;;;;;5044869;28;20121;-59
2023/01/30 02:08:09;;;;;;;10.50;4.85;;;;;;;;;;5044582;28;20021;-60
2023/01/30 02:10:40;;;;;;;11.18;5.10;;;;;;;;;;5045799;28;20095;-60
2023/01/30 02:13:05;;;;;;;11.38;5.47;;;;;;;;;;5047710;28;20013;-60
2023/01/30 02:15:30;;;;;;;9.67;4.40;;;;;;;;;;5049941;28;20021;-59
2023/01/30 02:17:55;;;;;;;10.43;4.90;;;;;;;;;;5051455;28;20027;-57
2023/01/30 02:20:41;;;;;;;11.02;4.88;;;;;;;;;;5048916;28;20029;-60
2023/01/30 02:23:22;;;;;;;15.48;5.18;;;;;;;;;;5033961;28;20025;-59
2023/01/30 02:25:58;;;;;;;10.13;4.93;;;;;;;;;;5046033;28;20025;-59
2023/01/30 02:28:39;;;;;;;10.48;4.80;;;;;;;;;;5042676;28;20114;-59
2023/01/30 02:31:23;;;;;;;10.85;4.95;;;;;;;;;;5048349;28;20028;-58
2023/01/30 02:33:54;;;;;;;11.55;5.45;;;;;;;;;;5044386;28;20036;-58
2023/01/30 02:36:33;;;;;;;11.82;5.25;;;;;;;;;;5048099;28;20044;-58
2023/01/30 02:39:09;;;;;;;11.60;5.10;;;;;;;;;;5042437;28;20025;-59
2023/01/30 02:41:43;;;;;;;11.95;4.97;;;;;;;;;;5039985;28;20029;-59
2023/01/30 02:44:27;;;;;;;11.70;5.07;;;;;;;;;;5051467;28;20083;-58
2023/01/30 02:46:56;;;;;;;12.18;5.40;;;;;;;;;;5052272;28;20029;-59
2023/01/30 02:49:41;;;;;;;9.90;4.88;;;;;;;;;;5052531;28;20024;-59
2023/01/30 02:52:07;;;;;;;9.38;4.80;;;;;;;;;;5051730;28;20412;-58
2023/01/30 02:54:33;;;;;;;12.40;4.93;;;;;;;;;;5051775;28;20123;-59
2023/01/30 02:56:58;;;;;;;11.00;5.00;;;;;;;;;;5051413;28;20056;-59
2023/01/30 02:59:29;;;;;;;9.75;4.80;;;;;;;;;;5040572;28;20045;-58
2023/01/30 03:02:12;;;;;;;9.82;4.53;;;;;;;;;;5041412;28;20017;-58
2023/01/30 03:04:43;;;;;;;10.48;4.30;;;;;;;;;;5032731;28;20038;-58
2023/01/30 03:07:19;;;;;;;10.75;4.53;;;;;;;;;;5043650;28;20032;-59
2023/01/30 03:09:57;;;;;;;10.55;4.65;;;;;;;;;;5045200;28;20033;-60
2023/01/30 03:12:37;;;;;;;9.30;4.40;;;;;;;;;;5049178;28;20089;-58
2023/01/30 03:15:20;;;;;;;10.73;4.97;;;;;;;;;;5035977;28;20028;-58
2023/01/30 03:17:46;;;;;;;9.25;4.28;;;;;;;;;;5046097;28;20021;-59
2023/01/30 03:20:13;;;;;;;10.52;4.68;;;;;;;;;;5045136;28;20040;-60
2023/01/30 03:22:38;;;;;;;10.63;4.68;;;;;;;;;;5050440;28;20070;-59
2023/01/30 03:25:04;;;;;;;8.70;4.17;;;;;;;;;;5042925;28;20034;-59
2023/01/30 03:27:29;;;;;;;10.15;4.57;;;;;;;;;;5049778;28;20025;-60
2023/01/30 03:29:54;;;;;;;11.03;4.73;;;;;;;;;;5048424;28;20094;-58
2023/01/30 03:32:19;;;;;;;9.65;4.55;;;;;;;;;;5046400;28;20039;-59
2023/01/30 03:34:44;;;;;;;10.00;4.00;;;;;;;;;;5048054;28;20553;-59
2023/01/30 03:37:09;;;;;;;10.55;4.47;;;;;;;;;;5040728;28;20021;-60
2023/01/30 03:39:34;;;;;;;10.93;4.27;;;;;;;;;;5047818;28;20037;-58
2023/01/30 03:42:00;;;;;;;10.83;4.60;;;;;;;;;;5050625;28;20429;-60
2023/01/30 03:44:25;;;;;;;8.73;3.85;;;;;;;;;;5045854;28;20108;-60
2023/01/30 03:46:50;;;;;;;9.33;4.40;;;;;;;;;;5051507;28;20390;-61
2023/01/30 03:49:15;;;;;;;8.83;3.83;;;;;;;;;;5049520;28;20024;-59
2023/01/30 03:51:40;;;;;;;8.83;4.10;;;;;;;;;;5047662;28;20486;-59
2023/01/30 03:54:05;;;;;;;9.00;3.85;;;;;;;;;;5045046;28;20048;-58
2023/01/30 03:56:31;;;;;;;9.63;3.83;;;;;;;;;;5045177;28;20044;-59
2023/01/30 03:58:56;;;;;;;9.73;4.03;;;;;;;;;;5044428;28;20025;-59
2023/01/30 04:01:21;;;;;;;8.00;3.90;;;;;;;;;;5040713;28;20032;-60
2023/01/30 04:03:46;;;;;;;9.60;4.13;;;;;;;;;;5042850;28;20033;-59
2023/01/30 04:06:11;;;;;;;9.55;4.10;;;;;;;;;;5048205;28;20082;-59
2023/01/30 04:08:36;;;;;;;9.03;3.90;;;;;;;;;;5050686;28;20029;-58
2023/01/30 04:11:02;;;;;;;9.95;4.20;;;;;;;;;;5041465;28;20028;-58
2023/01/30 04:13:27;;;;;;;8.40;3.70;;;;;;;;;;5040688;28;20021;-60
2023/01/30 04:15:52;;;;;;;9.10;4.00;;;;;;;;;;5045801;28;20394;-60
2023/01/30 04:18:17;;;;;;;10.17;4.33;;;;;;;;;;5041503;28;20352;-59
2023/01/30 04:20:42;;;;;;;9.55;3.75;;;;;;;;;;5044121;28;20615;-60
2023/01/30 04:23:07;;;;;;;11.10;4.72;;;;;;;;;;5041421;28;20108;-59
2023/01/30 04:25:33;;;;;;;8.87;4.03;;;;;;;;;;5043326;28;20029;-59
2023/01/30 04:27:58;;;;;;;8.00;3.37;;;;;;;;;;5049834;28;20071;-59
2023/01/30 04:30:23;;;;;;;10.30;3.83;;;;;;;;;;5047802;28;20017;-59
2023/01/30 04:32:48;;;;;;;8.93;3.85;;;;;;;;;;5045509;28;20032;-59
2023/01/30 04:35:13;;;;;;;8.73;3.87;;;;;;;;;;5042874;28;20415;-59
2023/01/30 04:37:38;;;;;;;8.43;3.92;;;;;;;;;;5041438;28;20036;-59
2023/01/30 04:40:04;;;;;;;11.18;4.25;;;;;;;;;;5042545;28;20115;-58
2023/01/30 04:42:29;;;;;;;8.85;3.90;;;;;;;;;;5047558;28;20385;-57
2023/01/30 04:44:54;;;;;;;8.98;4.00;;;;;;;;;;5043376;28;20642;-59
2023/01/30 04:47:19;;;;;;;8.60;3.90;;;;;;;;;;5041436;28;20189;-60
2023/01/30 04:52:12;;;;;;;10.07;4.50;;;;;;;;;;5042968;28;20029;-64
2023/01/30 04:54:37;;;;;;;9.93;4.32;;;;;;;;;;5053384;28;20019;-62
2023/01/30 04:57:02;;;;;;;8.20;4.00;;;;;;;;;;5057842;28;20082;-63
2023/01/30 04:59:27;;;;;;;9.80;4.27;;;;;;;;;;5049859;28;20474;-65
2023/01/30 05:01:53;;;;;;;8.43;3.60;;;;;;;;;;5051793;28;20013;-64
2023/01/30 05:04:18;;;;;;;9.73;4.00;;;;;;;;;;5054077;28;20025;-65
2023/01/30 05:06:43;;;;;;;9.73;3.85;;;;;;;;;;5052943;28;20381;-64
2023/01/30 05:09:08;;;;;;;9.07;4.00;;;;;;;;;;5061239;28;20035;-62
2023/01/30 05:11:34;;;;;;;10.13;4.17;;;;;;;;;;5050204;28;20013;-62
2023/01/30 05:13:59;;;;;;;8.93;3.85;;;;;;;;;;5049266;28;20024;-63
2023/01/30 05:16:25;;;;;;;8.53;4.03;;;;;;;;;;5050581;28;20089;-63
2023/01/30 05:18:50;;;;;;;8.85;3.92;;;;;;;;;;5053238;28;20478;-63
2023/01/30 05:21:24;;;;;;;8.90;4.13;;;;;;;;;;5047469;28;20557;-62
2023/01/30 05:23:49;;;;;;;9.45;4.03;;;;;;;;;;5063518;28;20058;-62
2023/01/30 05:26:15;;;;;;;10.38;4.75;;;;;;;;;;5050201;28;20440;-62
2023/01/30 05:28:40;;;;;;;10.07;4.43;;;;;;;;;;5049123;28;20029;-62
2023/01/30 05:31:07;;;;;;;7.80;4.00;;;;;;;;;;5039537;28;20027;-62
2023/01/30 05:33:32;;;;;;;8.57;4.05;;;;;;;;;;5049865;28;20028;-62
2023/01/30 05:35:58;;;;;;;9.33;4.23;;;;;;;;;;5041582;28;20044;-62
2023/01/30 05:38:24;;;;;;;8.30;3.60;;;;;;;;;;5040794;28;20032;-62
2023/01/30 05:40:59;;;;;;;10.07;4.53;;;;;;;;;;5038109;28;20018;-62
2023/01/30 05:43:24;;;;;;;9.88;4.13;;;;;;;;;;5042913;28;20055;-62
2023/01/30 05:45:53;;;;;;;9.15;4.05;;;;;;;;;;5044186;28;20470;-62
2023/01/30 05:48:18;;;;;;;8.57;4.40;;;;;;;;;;5038827;28;20029;-62
2023/01/30 05:50:43;;;;;;;10.07;4.57;;;;;;;;;;5051370;28;20018;-62
2023/01/30 05:53:08;;;;;;;9.87;4.33;;;;;;;;;;5033865;28;20061;-62
2023/01/30 05:55:34;;;;;;;9.85;4.35;;;;;;;;;;5040695;28;20473;-62
2023/01/30 05:57:59;;;;;;;9.57;3.95;;;;;;;;;;5042398;28;20025;-61
2023/01/30 06:00:24;;;;;;;8.43;3.88;;;;;;;;;;5039526;28;20112;-62
2023/01/30 06:02:49;;;;;;;8.18;3.83;;;;;;;;;;5038211;28;20486;-62
2023/01/30 06:05:14;;;;;;;8.50;4.10;;;;;;;;;;5046054;28;20021;-62
2023/01/30 06:07:39;;;;;;;8.57;3.80;;;;;;;;;;5047990;28;20108;-61
2023/01/30 06:10:05;;;;;;;8.85;3.63;;;;;;;;;;5051196;28;20017;-61
2023/01/30 06:12:30;;;;;;;9.27;4.27;;;;;;;;;;5048272;28;20021;-61
2023/01/30 06:14:55;;;;;;;8.53;4.27;;;;;;;;;;5049461;28;20021;-62
2023/01/30 06:17:20;;;;;;;9.00;3.87;;;;;;;;;;5046144;28;20346;-62
2023/01/30 06:19:45;;;;;;;9.38;4.13;;;;;;;;;;5051239;28;20029;-61
2023/01/30 06:22:10;;;;;;;8.38;4.22;;;;;;;;;;5060035;28;20032;-62
2023/01/30 06:24:35;;;;;;;9.70;4.15;;;;;;;;;;5044089;28;20052;-63
2023/01/30 06:27:01;;;;;;;8.63;4.22;;;;;;;;;;5067155;28;20020;-64
2023/01/30 06:29:26;;;;;;;10.53;4.70;;;;;;;;;;5070605;28;20039;-61
2023/01/30 06:31:51;;;;;;;8.40;4.00;;;;;;;;;;5072077;28;20126;-62
2023/01/30 06:34:16;;;;;;;7.50;3.72;;;;;;;;;;5068377;28;20020;-62
2023/01/30 06:36:42;;;;;;;9.35;4.00;;;;;;;;;;5060453;28;20043;-61
2023/01/30 06:39:08;;;;;;;9.30;4.30;;;;;;;;;;5058976;28;20107;-62
2023/01/30 06:41:33;;;;;;;8.93;4.03;;;;;;;;;;5045152;28;20113;-60
2023/01/30 06:43:58;;;;;;;8.73;4.05;;;;;;;;;;5044396;28;20475;-63
2023/01/30 06:46:23;;;;;;;8.60;3.77;;;;;;;;;;5038646;28;20094;-63
2023/01/30 06:48:48;;;;;;;7.55;3.75;;;;;;;;;;5043606;28;20030;-63
2023/01/30 06:51:13;;;;;;;9.17;4.10;;;;;;;;;;5049967;28;20515;-63
2023/01/30 06:53:38;;;;;;;8.27;3.78;;;;;;;;;;5048214;28;20478;-63
2023/01/30 06:56:04;;;;;;;8.40;4.00;;;;;;;;;;5057233;28;20546;-62
2023/01/30 06:58:29;;;;;;;7.00;3.57;;;;;;;;;;5057447;28;20025;-63
2023/01/30 07:00:54;;;;;;;7.93;3.60;;;;;;;;;;5043437;28;20024;-63
2023/01/30 07:03:19;;;;;;;7.60;3.67;;;;;;;;;;5051080;28;20044;-63
2023/01/30 07:05:45;;;;;;;8.13;4.13;;;;;;;;;;5052483;28;20017;-63
2023/01/30 07:08:11;;;;;;;10.05;4.07;;;;;;;;;;5049933;28;20025;-63
2023/01/30 07:10:36;;;;;;;8.82;4.35;;;;;;;;;;5048519;28;20090;-63
2023/01/30 07:13:02;;;;;;;9.00;4.10;;;;;;;;;;5032748;28;20030;-62
2023/01/30 07:15:27;;;;;;;8.15;3.85;;;;;;;;;;5039825;28;20088;-62
2023/01/30 07:17:53;;;;;;;9.88;4.03;;;;;;;;;;5056724;28;20021;-63
2023/01/30 07:20:18;;;;;;;9.38;3.95;;;;;;;;;;5046960;28;20036;-63
2023/01/30 07:22:52;;;;;;;10.68;5.03;;;;;;;;;;5053937;28;20055;-63
2023/01/30 07:25:18;;;;;;;9.05;4.15;;;;;;;;;;5061859;28;20028;-63
2023/01/30 07:27:48;;;;;;;8.32;3.75;;;;;;;;;;5056375;28;20028;-62
2023/01/30 07:30:13;;;;;;;9.63;4.20;;;;;;;;;;5047918;28;20051;-62
2023/01/30 07:32:39;;;;;;;7.50;3.43;;;;;;;;;;5042096;28;20525;-62
2023/01/30 07:35:04;;;;;;;7.88;3.58;;;;;;;;;;5043564;28;20020;-61
2023/01/30 07:37:29;;;;;;;8.63;3.72;;;;;;;;;;5062193;28;20535;-62
2023/01/30 07:39:54;;;;;;;7.65;3.40;;;;;;;;;;5069973;28;20680;-60
2023/01/30 07:42:19;;;;;;;7.85;3.17;;;;;;;;;;5065929;28;20082;-60
2023/01/30 07:44:44;;;;;;;7.40;3.45;;;;;;;;;;5058511;28;20067;-60
2023/01/30 07:47:10;;;;;;;7.00;3.15;;;;;;;;;;5065145;28;20394;-60
2023/01/30 07:49:35;;;;;;;7.85;3.53;;;;;;;;;;5058894;28;20083;-61
2023/01/30 07:52:00;;;;;;;7.13;3.17;;;;;;;;;;5061291;28;20082;-62
2023/01/30 07:54:25;;;;;;;9.02;3.40;;;;;;;;;;5063227;28;20489;-60
2023/01/30 07:56:50;;;;;;;7.95;3.17;;;;;;;;;;5061629;28;20070;-62
2023/01/30 07:59:15;;;;;;;7.78;3.05;;;;;;;;;;5056230;28;20033;-62
2023/01/30 08:01:41;;;;;;;6.38;2.80;;;;;;;;;;5048491;28;20032;-62
2023/01/30 08:04:06;;;;;;;6.53;3.00;;;;;;;;;;5054609;28;20395;-62
2023/01/30 08:06:31;;;;;;;6.40;2.80;;;;;;;;;;5050687;28;20139;-62
2023/01/30 08:08:56;;;;;;;6.80;2.63;;;;;;;;;;5058054;28;20032;-60
2023/01/30 08:11:21;;;;;;;7.80;2.95;;;;;;;;;;5049449;28;20017;-60
2023/01/30 08:13:46;;;;;;;6.67;2.80;;;;;;;;;;5050328;28;20033;-60
2023/01/30 08:16:12;;;;;;;6.67;2.80;;;;;;;;;;5047429;28;20021;-60
2023/01/30 08:18:37;;;;;;;7.63;2.58;;;;;;;;;;5044010;28;21059;-60
2023/01/30 08:21:03;;;;;;;6.32;2.50;;;;;;;;;;5057975;28;20049;-60
2023/01/30 08:23:29;;;;;;;6.20;2.72;;;;;;;;;;5071206;28;20103;-60
2023/01/30 08:25:58;;;;;;;6.32;2.53;;;;;;;;;;5067227;28;20055;-60
2023/01/30 08:28:23;;;;;;;7.47;2.97;;;;;;;;;;5061521;28;20559;-60
2023/01/30 08:30:48;;;;;;;6.03;2.75;;;;;;;;;;5052962;28;20082;-61
2023/01/30 08:33:14;;;;;;;6.33;2.60;;;;;;;;;;5055020;28;20028;-60
2023/01/30 08:35:40;;;;;;;7.38;2.97;;;;;;;;;;5056487;28;20028;-61
2023/01/30 08:38:06;;;;;;;8.32;2.75;;;;;;;;;;5057745;28;20470;-61
2023/01/30 08:40:31;;;;;;;6.22;2.40;;;;;;;;;;5048950;28;20478;-62
2023/01/30 08:42:56;;;;;;;6.13;2.40;;;;;;;;;;5049875;28;20035;-61
2023/01/30 08:45:21;;;;;;;6.40;2.70;;;;;;;;;;5048885;28;20086;-61
2023/01/30 08:47:46;;;;;;;5.30;2.40;;;;;;;;;;5047508;28;20021;-61
2023/01/30 08:50:11;;;;;;;5.45;2.40;;;;;;;;;;5044053;28;20025;-61
2023/01/30 08:52:37;;;;;;;5.07;2.20;;;;;;;;;;5062582;28;20101;-61
2023/01/30 08:55:02;;;;;;;6.18;2.40;;;;;;;;;;5056687;28;20021;-61
2023/01/30 08:57:27;;;;;;;4.43;1.80;;;;;;;;;;5052095;28;20072;-63
2023/01/30 08:59:52;;;;;;;4.90;2.08;;;;;;;;;;5056550;28;21156;-63
2023/01/30 09:02:18;;;;;;;5.13;2.00;;;;;;;;;;5057910;28;20033;-61
2023/01/30 09:04:43;;;;;;;5.20;1.90;;;;;;;;;;5057145;28;20032;-60
2023/01/30 09:07:08;;;;;;;6.07;1.80;;;;;;;;;;5059752;28;20024;-61
2023/01/30 09:09:33;;;;;;;4.40;1.73;;;;;;;;;;5069207;28;20039;-61
2023/01/30 09:11:58;;;;;;;4.65;2.20;;;;;;;;;;5064977;28;20021;-60
2023/01/30 09:14:24;;;;;;;4.67;1.67;;;;;;;;;;5072565;28;20545;-60
2023/01/30 09:16:54;;;;;;;4.70;1.90;;;;;;;;;;5073259;28;20096;-60
2023/01/30 09:19:26;;;;;;;5.57;2.00;;;;;;;;;;5041859;28;20055;-61
2023/01/30 09:21:51;;;;;;;4.93;1.63;;;;;;;;;;5054906;28;20435;-61
2023/01/30 09:24:17;;;;;;;5.15;1.73;;;;;;;;;;5062494;28;20035;-62
2023/01/30 09:26:43;;;;;;;4.53;1.92;;;;;;;;;;5053406;28;20108;-61
2023/01/30 09:29:11;;;;;;;4.80;2.00;;;;;;;;;;5052886;28;20068;-60
2023/01/30 09:31:37;;;;;;;4.63;1.60;;;;;;;;;;5066348;28;20017;-61
2023/01/30 09:34:02;;;;;;;4.30;1.65;;;;;;;;;;5052027;28;20071;-60
2023/01/30 09:36:27;;;;;;;4.85;1.50;;;;;;;;;;5060128;28;20066;-60
2023/01/30 09:38:52;;;;;;;4.43;1.60;;;;;;;;;;5060748;28;20501;-60
2023/01/30 09:41:26;;;;;;;4.00;1.50;;;;;;;;;;5052604;28;20020;-60
2023/01/30 09:44:02;;;;;;;4.68;1.63;;;;;;;;;;5052514;28;20025;-60
2023/01/30 09:46:47;;;;;;;4.43;1.73;;;;;;;;;;5065911;28;20028;-60
2023/01/30 09:49:30;;;;;;;4.05;1.50;;;;;;;;;;5055508;28;20453;-62
2023/01/30 09:52:14;;;;;;;4.35;1.70;;;;;;;;;;5063734;28;20508;-62
2023/01/30 09:54:41;;;;;;;4.10;1.60;;;;;;;;;;5072380;28;20028;-62
2023/01/30 09:57:06;;;;;;;4.78;1.75;;;;;;;;;;5055617;28;20398;-62
2023/01/30 09:59:36;;;;;;;4.35;1.85;;;;;;;;;;5063411;28;20036;-62
2023/01/30 10:02:07;;;;;;;5.05;1.70;;;;;;;;;;5068417;28;20373;-60
2023/01/30 10:04:34;;;;;;;5.00;1.70;;;;;;;;;;5061013;28;20013;-60
2023/01/30 10:07:09;;;;;;;4.30;1.60;;;;;;;;;;5052576;28;20021;-63
2023/01/30 10:09:42;;;;;;;4.45;1.92;;;;;;;;;;5052955;28;20030;-61
2023/01/30 10:12:17;;;;;;;4.50;1.55;;;;;;;;;;5053180;28;20033;-60
2023/01/30 10:14:48;;;;;;;5.05;1.70;;;;;;;;;;5052666;28;20109;-61
2023/01/30 10:17:39;;;;;;;4.40;1.42;;;;;;;;;;5055430;28;20016;-63
2023/01/30 10:20:22;;;;;;;4.03;1.23;;;;;;;;;;5056727;28;20037;-63
2023/01/30 10:23:01;;;;;;;4.07;1.45;;;;;;;;;;5070312;28;20030;-62
2023/01/30 10:25:31;;;;;;;3.72;1.35;;;;;;;;;;5065018;28;20040;-62
2023/01/30 10:28:00;;;;;;;3.85;1.40;;;;;;;;;;5067463;28;20024;-63
2023/01/30 10:30:25;;;;;;;3.95;1.45;;;;;;;;;;5071260;28;20042;-62
2023/01/30 10:32:54;;;;;;;4.00;1.60;;;;;;;;;;5064747;28;20624;-61
2023/01/30 10:35:22;;;;;;;3.40;1.30;;;;;;;;;;5063596;28;20115;-62
2023/01/30 10:37:52;;;;;;;3.70;1.40;;;;;;;;;;5067418;28;20046;-62
2023/01/30 10:40:17;;;;;;;3.53;1.20;;;;;;;;;;5062415;28;20478;-62
2023/01/30 10:42:49;;;;;;;4.40;1.60;;;;;;;;;;5071186;28;20036;-62
2023/01/30 10:45:16;;;;;;;3.70;1.20;;;;;;;;;;5071579;28;20200;-62
2023/01/30 10:47:47;;;;;;;3.75;1.25;;;;;;;;;;5056519;28;20489;-62
2023/01/30 10:50:14;;;;;;;3.25;1.00;;;;;;;;;;5052485;28;20485;-62
2023/01/30 10:52:58;;;;;;;3.20;1.25;;;;;;;;;;5175911;22;20039;-63
2023/01/30 10:55:34;;;;;;;3.63;1.20;;;;;;;;;;5088137;28;20120;-63
2023/01/30 10:58:03;;;;;;;2.85;1.10;;;;;;;;;;5092660;28;20022;-65
2023/01/30 11:00:29;;;;;;;3.78;1.25;;;;;;;;;;5087407;28;20484;-62
2023/01/30 11:03:03;;;;;;;4.18;1.35;;;;;;;;;;5084953;28;20036;-63
2023/01/30 11:05:43;;;;;;;3.30;1.10;;;;;;;;;;5078897;28;20539;-65
2023/01/30 11:08:22;;;;;;;3.28;1.05;;;;;;;;;;5074911;28;20054;-61
2023/01/30 11:10:48;;;;;;;3.55;1.20;;;;;;;;;;5080352;28;20090;-62
2023/01/30 11:13:13;;;;;;;3.95;1.20;;;;;;;;;;5090156;28;20473;-63
2023/01/30 11:15:39;;;;;;;3.67;1.10;;;;;;;;;;5088380;28;20431;-62
2023/01/30 11:18:05;;;;;;;3.63;1.30;;;;;;;;;;5079952;28;20024;-62
2023/01/30 11:20:37;;;;;;;2.97;1.05;;;;;;;;;;5090635;28;20488;-64
2023/01/30 11:23:04;;;;;;;2.90;1.10;;;;;;;;;;5089386;28;20023;-62
2023/01/30 11:25:29;;;;;;;3.75;1.23;;;;;;;;;;5079454;28;20020;-63
2023/01/30 11:27:55;;;;;;;3.15;1.00;;;;;;;;;;5071084;28;20031;-63
2023/01/30 11:30:26;;;;;;;3.28;1.02;;;;;;;;;;5069302;28;20385;-62
2023/01/30 11:33:03;;;;;;;4.10;1.30;;;;;;;;;;5078438;28;20025;-61
2023/01/30 11:35:28;;;;;;;3.20;1.10;;;;;;;;;;5051148;28;20481;-62
2023/01/30 11:38:08;;;;;;;3.80;1.30;;;;;;;;;;5056362;28;20144;-62
2023/01/30 11:40:36;;;;;;;4.45;1.45;;;;;;;;;;5071559;28;20024;-62
2023/01/30 11:43:03;;;;;;;4.30;1.23;;;;;;;;;;5070663;28;20040;-63
2023/01/30 11:45:29;;;;;;;3.13;1.17;;;;;;;;;;5061186;28;20081;-63
2023/01/30 11:48:03;;;;;;;4.18;1.50;;;;;;;;;;5076211;28;20029;-62
2023/01/30 11:50:31;;;;;;;4.80;1.45;;;;;;;;;;5070433;28;20044;-62
2023/01/30 11:53:00;;;;;;;3.90;1.40;;;;;;;;;;5065425;28;20051;-64
2023/01/30 11:55:25;;;;;;;3.28;1.10;;;;;;;;;;5068226;28;20024;-63
2023/01/30 11:57:53;;;;;;;3.50;1.40;;;;;;;;;;5077791;28;20165;-64
2023/01/30 12:00:20;;;;;;;4.72;1.38;;;;;;;;;;5077987;28;20082;-61
2023/01/30 12:02:47;;;;;;;3.58;1.30;;;;;;;;;;5081160;28;20028;-63
2023/01/30 12:05:22;;;;;;;4.45;1.48;;;;;;;;;;5080420;28;20028;-61
2023/01/30 12:07:49;;;;;;;3.83;1.42;;;;;;;;;;5090771;28;20028;-63
2023/01/30 12:10:23;;;;;;;4.25;1.30;;;;;;;;;;5090497;28;20020;-63
2023/01/30 12:12:50;;;;;;;3.65;1.40;;;;;;;;;;5070282;28;20024;-61
2023/01/30 12:15:15;;;;;;;3.55;1.20;;;;;;;;;;5078704;28;20134;-62
2023/01/30 12:17:53;;;;;;;4.23;1.33;;;;;;;;;;5070873;28;20048;-62
2023/01/30 12:20:23;;;;;;;4.53;1.60;;;;;;;;;;5069460;28;20040;-63
2023/01/30 12:23:11;;;;;;;6.13;1.67;;;;;;;;;;5069004;28;20583;-62
2023/01/30 12:25:47;;;;;;;4.72;1.45;;;;;;;;;;5071353;28;20021;-60
2023/01/30 12:28:26;;;;;;;4.10;1.50;;;;;;;;;;5081716;28;20028;-63
2023/01/30 12:30:56;;;;;;;2.92;1.20;;;;;;;;;;5089157;28;20016;-62
2023/01/30 12:33:25;;;;;;;4.57;1.40;;;;;;;;;;5094440;28;20516;-62
2023/01/30 12:36:00;;;;;;;3.90;1.40;;;;;;;;;;5094791;28;20024;-62
2023/01/30 12:38:44;;;;;;;5.65;1.77;;;;;;;;;;5083870;28;20016;-63
2023/01/30 12:41:28;;;;;;;3.90;1.30;;;;;;;;;;5083123;28;20024;-62
2023/01/30 12:44:17;;;;;;;4.90;1.63;;;;;;;;;;5073996;28;20031;-64
2023/01/30 12:47:00;;;;;;;4.20;1.30;;;;;;;;;;5074236;28;20028;-63
2023/01/30 12:49:33;;;;;;;4.97;1.30;;;;;;;;;;5072137;28;20020;-63
2023/01/30 12:52:26;;;;;;;5.05;1.33;;;;;;;;;;5079507;28;20024;-62
2023/01/30 12:54:56;;;;;;;5.97;1.65;;;;;;;;;;5082655;28;20028;-62
2023/01/30 12:57:33;;;;;;;3.72;1.08;;;;;;;;;;5085491;28;20052;-63
2023/01/30 13:00:17;;;;;;;4.47;1.30;;;;;;;;;;5096173;28;20039;-63
2023/01/30 13:02:59;;;;;;;3.85;1.55;;;;;;;;;;5095963;28;20024;-63
2023/01/30 13:05:38;;;;;;;4.00;1.30;;;;;;;;;;5094271;28;20081;-61
2023/01/30 13:08:23;;;;;;;5.25;1.40;;;;;;;;;;5085179;28;20031;-63
2023/01/30 13:11:17;;;;;;;4.53;1.48;;;;;;;;;;5069120;28;20017;-64
2023/01/30 13:13:47;;;;;;;5.30;1.60;;;;;;;;;;4984798;28;20036;-63
2023/01/30 13:16:18;;;;;;;4.50;1.20;;;;;;;;;;5076542;28;20065;-63
2023/01/30 13:18:51;;;;;;;6.85;1.50;;;;;;;;;;5079437;28;20469;-62
2023/01/30 13:21:23;;;;;;;4.53;1.38;;;;;;;;;;5073276;28;20017;-62
2023/01/30 13:24:13;;;;;;;4.10;1.50;;;;;;;;;;5073567;28;20066;-63
2023/01/30 13:26:38;;;;;;;;;;;;;;;;;;5070515;28;20142;-62
2023/01/30 13:29:13;;;;;;;5.43;1.35;;;;;;;;;;5077571;28;20014;-64
2023/01/30 13:31:41;;;;;;;6.53;1.38;;;;;;;;;;5084356;28;20020;-62
2023/01/30 13:34:10;;;;;;;5.85;1.60;;;;;;;;;;5093258;28;20031;-62
2023/01/30 13:36:39;;;;;;;5.40;1.25;;;;;;;;;;5093059;28;20039;-63
2023/01/30 13:39:09;;;;;;;6.25;1.90;;;;;;;;;;5084381;28;20028;-68
2023/01/30 13:41:36;;;;;;;4.60;1.48;;;;;;;;;;5071794;28;20440;-63
2023/01/30 13:44:14;;;;;;;4.03;1.23;;;;;;;;;;5081047;28;20025;-64
2023/01/30 13:46:39;;;;;;;5.07;1.35;;;;;;;;;;5072752;28;20017;-62
2023/01/30 13:49:27;;;;;;;4.93;1.52;;;;;;;;;;5079246;28;20024;-62
2023/01/30 13:51:55;;;;;;;5.80;1.40;;;;;;;;;;5083241;28;20039;-63
2023/01/30 13:54:21;;;;;;;4.13;1.58;;;;;;;;;;5091427;28;20027;-62
2023/01/30 13:56:50;;;;;;;3.85;1.20;;;;;;;;;;5067291;28;20016;-62
2023/01/30 13:59:15;;;;;;;4.43;1.20;;;;;;;;;;5085077;28;20032;-61
2023/01/30 14:01:58;;;;;;;6.55;1.20;;;;;;;;;;5082201;28;20031;-61
2023/01/30 14:04:43;;;;;;;5.32;1.50;;;;;;;;;;5085088;28;20024;-62
2023/01/30 14:07:09;;;;;;;4.82;1.23;;;;;;;;;;5093051;28;20020;-62
2023/01/30 14:09:36;;;;;;;4.23;1.30;;;;;;;;;;5093325;28;20330;-63
2023/01/30 14:12:02;;;;;;;5.32;1.30;;;;;;;;;;5075126;28;20579;-62
2023/01/30 14:14:29;;;;;;;4.97;1.00;;;;;;;;;;5076759;28;20055;-61
2023/01/30 14:17:14;;;;;;;4.50;1.42;;;;;;;;;;5074032;28;20032;-63
2023/01/30 14:19:41;;;;;;;6.88;1.73;;;;;;;;;;5077080;28;20028;-63
2023/01/30 14:22:17;;;;;;;5.20;1.25;;;;;;;;;;5079054;28;20617;-64
2023/01/30 14:24:42;;;;;;;4.38;1.20;;;;;;;;;;5083816;28;20028;-62
2023/01/30 14:27:22;;;;;;;3.83;1.30;;;;;;;;;;5078259;28;20017;-62
2023/01/30 14:29:48;;;;;;;5.68;1.23;;;;;;;;;;5084289;28;20058;-63
2023/01/30 14:32:13;;;;;;;5.18;1.13;;;;;;;;;;5092409;28;20044;-61
2023/01/30 14:34:46;;;;;;;4.55;1.20;;;;;;;;;;5078503;28;20030;-63
2023/01/30 14:37:45;;;;;;;3.80;1.13;;;;;;;;;;5074306;28;20031;-62
2023/01/30 14:40:22;;;;;;;6.25;1.33;;;;;;;;;;5072139;28;20036;-62
2023/01/30 14:43:05;;;;;;;5.18;1.50;;;;;;;;;;5082444;28;20330;-63
2023/01/30 14:45:50;;;;;;;5.28;1.52;;;;;;;;;;5087771;28;20139;-63
2023/01/30 14:48:27;;;;;;;6.45;1.45;;;;;;;;;;5070749;28;20031;-62
2023/01/30 14:51:10;;;;;;;5.72;1.35;;;;;;;;;;5065154;28;20040;-62
2023/01/30 14:53:46;;;;;;;4.85;1.10;;;;;;;;;;5081986;28;20024;-63
2023/01/30 14:56:11;;;;;;;4.35;1.00;;;;;;;;;;5080265;28;20028;-63
2023/01/30 14:58:36;;;;;;;6.25;1.25;;;;;;;;;;5087830;28;20062;-62